Time;durP1;ratioP1;P1;durP2;ratioP2;P2;SDS_P1;SDS_P2;PMS_P1;PMS_P2;Temp;Humidity;BMP_temperature;BMP_pressure;BME280_temperature;BME280_humidity;BME280_pressure;Samples;Min_cycle;Max_cycle;Signal;HPM_P1;HPM_P2
2023/07/01 00:01:32;;;;;;;9.80;8.00;;;;;;;22.02;83.07;98174.05;137020;1276;22735;-85
2023/07/01 00:04:33;;;;;;;7.90;7.20;;;;;;;22.20;81.64;98171.66;136672;1268;362956;-84
2023/07/01 00:07:34;;;;;;;8.60;7.70;;;;;;;21.78;79.10;98171.38;137030;1268;25327;-83
2023/07/01 00:10:35;;;;;;;8.80;6.80;;;;;;;20.84;79.91;98169.63;137313;1274;22990;-85
2023/07/01 00:13:36;;;;;;;8.50;7.70;;;;;;;20.53;82.04;98174.36;137254;1274;22246;-85
2023/07/01 00:16:39;;;;;;;8.00;7.20;;;;;;;20.27;82.91;98171.64;137142;1274;25032;-84
2023/07/01 00:19:41;;;;;;;9.40;8.60;;;;;;;20.00;83.62;98173.16;137474;1274;22718;-85
2023/07/01 00:22:42;;;;;;;9.80;7.90;;;;;;;19.71;84.81;98165.34;137199;1274;22656;-85
2023/07/01 00:25:43;;;;;;;9.90;9.00;;;;;;;19.53;86.00;98156.61;137104;1273;22822;-84
2023/07/01 00:28:44;;;;;;;8.70;7.90;;;;;;;19.80;89.54;98154.95;137463;1274;22224;-84
2023/07/01 00:31:45;;;;;;;9.40;8.50;;;;;;;20.26;89.16;98154.16;136990;1274;22257;-84
2023/07/01 00:34:47;;;;;;;9.10;8.20;;;;;;;20.60;88.13;98153.59;137132;1274;22422;-84
2023/07/01 00:37:50;;;;;;;11.70;10.60;;;;;;;20.89;87.01;98154.39;137382;1273;22588;-84
2023/07/01 00:40:51;;;;;;;10.00;9.10;;;;;;;21.23;86.38;98150.73;137202;1274;22580;-85
2023/07/01 00:43:53;;;;;;;13.10;10.70;;;;;;;21.57;84.74;98147.11;136127;1273;22565;-84
2023/07/01 00:46:54;;;;;;;10.00;9.00;;;;;;;21.80;83.14;98142.94;136971;1274;22675;-83
2023/07/01 00:49:55;;;;;;;10.90;9.40;;;;;;;21.93;81.92;98140.24;137492;1274;22183;-84
2023/07/01 00:52:56;;;;;;;11.60;8.70;;;;;;;22.05;81.25;98132.46;137150;1274;22119;-85
2023/07/01 00:55:57;;;;;;;10.20;9.30;;;;;;;22.13;80.51;98130.31;137071;1274;22524;-84
2023/07/01 00:58:59;;;;;;;9.50;8.60;;;;;;;22.18;80.01;98124.76;137396;1274;22643;-85
2023/07/01 01:02:00;;;;;;;10.00;9.00;;;;;;;22.24;79.29;98128.04;136909;1262;22234;-85
2023/07/01 01:05:01;;;;;;;11.00;8.80;;;;;;;22.29;78.76;98132.09;136882;1274;22184;-85
2023/07/01 01:08:05;;;;;;;15.80;8.90;;;;;;;22.30;78.40;98127.42;137245;1274;22537;-85
2023/07/01 01:11:06;;;;;;;11.50;9.20;;;;;;;22.28;78.43;98126.64;137068;1274;22483;-85
2023/07/01 01:14:07;;;;;;;10.50;8.30;;;;;;;22.30;78.12;98125.84;136474;1270;22681;-85
2023/07/01 01:17:08;;;;;;;11.30;8.20;;;;;;;22.31;78.03;98121.70;137101;1274;23299;-85
2023/07/01 01:20:13;;;;;;;9.80;9.00;;;;;;;22.27;77.80;98119.41;137204;1274;22208;-86
2023/07/01 01:23:14;;;;;;;12.40;9.10;;;;;;;22.28;77.57;98118.33;136710;1274;22556;-86
2023/07/01 01:26:15;;;;;;;9.10;8.20;;;;;;;22.30;77.31;98116.61;136833;1274;22547;-82
2023/07/01 01:29:16;;;;;;;8.50;7.60;;;;;;;22.33;77.03;98118.08;137275;1274;22183;-82
2023/07/01 01:32:17;;;;;;;9.40;8.50;;;;;;;22.34;76.74;98114.27;136784;1274;22310;-84
2023/07/01 01:35:18;;;;;;;10.30;8.50;;;;;;;22.34;76.56;98113.55;136831;1274;22576;-85
2023/07/01 01:38:20;;;;;;;10.50;8.90;;;;;;;22.29;76.62;98110.30;137411;1274;22257;-85
2023/07/01 01:41:21;;;;;;;10.10;8.80;;;;;;;22.21;76.46;98109.73;136826;1274;22374;-85
2023/07/01 01:44:25;;;;;;;8.90;8.00;;;;;;;21.89;76.92;98104.65;136850;1274;22608;-84
2023/07/01 01:47:26;;;;;;;;;;;;;;;21.91;78.05;98103.83;137319;1274;22540;-87
2023/07/01 01:50:27;;;;;;;10.90;9.90;;;;;;;22.02;78.12;98107.96;137061;1274;22273;-84
2023/07/01 01:53:28;;;;;;;11.30;10.00;;;;;;;22.11;78.14;98111.64;137150;1274;22700;-83
2023/07/01 01:56:31;;;;;;;9.70;8.90;;;;;;;22.20;77.85;98107.48;137118;1274;22579;-85
2023/07/01 01:59:32;;;;;;;10.80;9.80;;;;;;;22.20;77.33;98106.78;137334;1274;22412;-84
2023/07/01 02:02:33;;;;;;;10.00;8.70;;;;;;;22.00;76.53;98110.71;137240;1274;22569;-84
2023/07/01 02:05:34;;;;;;;14.60;9.80;;;;;;;21.18;77.78;98107.55;137133;1274;22544;-85
2023/07/01 02:08:35;;;;;;;11.10;10.10;;;;;;;20.95;81.12;98112.24;136806;1274;22567;-84
2023/07/01 02:11:38;;;;;;;10.70;9.70;;;;;;;21.28;82.85;98108.02;136879;1274;22211;-85
2023/07/01 02:14:39;;;;;;;11.70;10.50;;;;;;;21.48;81.01;98111.22;136682;1274;22560;-85
2023/07/01 02:17:40;;;;;;;11.00;9.90;;;;;;;20.99;81.18;98111.17;136851;1274;22621;-85
2023/07/01 02:20:44;;;;;;;12.00;10.90;;;;;;;21.12;83.20;98103.23;136094;1274;22171;-82
2023/07/01 02:23:45;;;;;;;12.60;11.30;;;;;;;21.41;82.78;98100.38;136444;1270;22557;-84
2023/07/01 02:26:46;;;;;;;11.10;9.90;;;;;;;21.59;81.64;98099.60;137104;1274;23120;-81
2023/07/01 02:29:47;;;;;;;11.30;10.30;;;;;;;21.54;81.22;98094.33;136837;1270;22562;-84
2023/07/01 02:32:51;;;;;;;14.70;10.60;;;;;;;21.42;81.50;98093.63;136975;1274;22544;-87
2023/07/01 02:35:52;;;;;;;11.90;9.80;;;;;;;21.35;80.98;98091.64;137299;1274;22581;-85
2023/07/01 02:38:53;;;;;;;14.50;13.10;;;;;;;20.56;79.55;98092.02;136809;1274;22189;-85
2023/07/01 02:41:54;;;;;;;19.60;15.80;;;;;;;19.64;83.61;98090.92;136819;1274;24863;-85
2023/07/01 02:44:56;;;;;;;14.60;13.10;;;;;;;19.14;87.96;98094.10;137448;1274;22216;-86
2023/07/01 02:47:57;;;;;;;16.60;12.90;;;;;;;19.58;92.01;98095.02;136781;1274;22241;-86
2023/07/01 02:50:58;;;;;;;15.30;13.90;;;;;;;20.34;90.50;98098.90;136781;1274;22127;-85
2023/07/01 02:54:02;;;;;;;14.90;13.40;;;;;;;20.30;86.69;98100.48;137266;1274;22899;-85
2023/07/01 02:57:03;;;;;;;13.60;12.20;;;;;;;20.27;89.22;98096.52;137015;1274;22557;-84
2023/07/01 03:00:07;;;;;;;13.00;11.80;;;;;;;20.53;88.06;98098.73;136802;1274;22206;-84
2023/07/01 03:03:09;;;;;;;13.20;11.90;;;;;;;20.81;88.13;98097.77;137223;1274;22540;-84
2023/07/01 03:06:10;;;;;;;13.50;12.20;;;;;;;20.64;85.33;98096.85;137160;1274;22405;-85
2023/07/01 03:09:11;;;;;;;12.70;10.50;;;;;;;20.33;87.69;98097.89;136945;1274;22278;-82
2023/07/01 03:12:13;;;;;;;19.10;13.60;;;;;;;20.72;89.56;98099.55;137057;1274;25445;-83
2023/07/01 03:15:14;;;;;;;31.80;27.90;;;;;;;21.12;87.93;98099.33;137028;1274;22184;-84
2023/07/01 03:18:15;;;;;;;12.80;11.60;;;;;;;21.26;86.01;98098.38;136843;1274;22279;-83
2023/07/01 03:21:17;;;;;;;12.40;10.40;;;;;;;21.30;86.21;98098.55;136872;1274;22985;-83
2023/07/01 03:24:18;;;;;;;15.00;11.20;;;;;;;21.29;86.15;98100.02;137475;1274;22257;-83
2023/07/01 03:27:19;;;;;;;11.60;10.40;;;;;;;21.42;85.93;98100.14;136944;1274;22401;-84
2023/07/01 03:30:21;;;;;;;10.80;9.80;;;;;;;21.48;85.54;98100.79;136909;1274;23202;-84
2023/07/01 03:33:22;;;;;;;11.60;10.50;;;;;;;21.62;85.48;98093.44;137456;1274;23161;-84
2023/07/01 03:36:23;;;;;;;11.10;9.90;;;;;;;21.78;84.52;98096.50;136784;1265;22551;-84
2023/07/01 03:39:24;;;;;;;11.00;9.90;;;;;;;21.86;83.64;98098.41;136669;1274;22583;-84
2023/07/01 03:42:26;;;;;;;13.60;11.50;;;;;;;21.78;82.59;98100.70;137341;1274;22537;-84
2023/07/01 03:45:27;;;;;;;13.00;11.90;;;;;;;21.61;82.08;98100.23;136851;1274;22669;-85
2023/07/01 03:48:28;;;;;;;16.20;14.70;;;;;;;21.26;82.37;98098.00;136680;1274;22423;-85
2023/07/01 03:51:29;;;;;;;26.40;24.00;;;;;;;21.18;83.64;98097.63;136959;1274;22546;-86
2023/07/01 03:54:31;;;;;;;18.00;16.30;;;;;;;21.19;84.31;98098.30;136757;1274;22227;-83
2023/07/01 03:57:32;;;;;;;11.00;10.00;;;;;;;21.14;84.04;98102.77;136898;1274;22357;-83
2023/07/01 04:00:33;;;;;;;11.00;9.70;;;;;;;20.93;84.75;98099.75;137227;1274;22606;-83
2023/07/01 04:03:34;;;;;;;10.50;9.70;;;;;;;20.87;85.57;98099.45;136894;1274;22202;-84
2023/07/01 04:06:35;;;;;;;10.90;10.10;;;;;;;20.90;85.85;98094.75;136838;1274;22259;-84
2023/07/01 04:09:37;;;;;;;11.60;10.30;;;;;;;20.93;85.93;98092.14;137162;1274;22584;-84
2023/07/01 04:12:38;;;;;;;11.40;10.40;;;;;;;20.84;86.00;98091.26;137241;1274;22272;-83
2023/07/01 04:15:39;;;;;;;13.80;10.80;;;;;;;20.80;86.53;98087.54;137033;1274;22231;-84
2023/07/01 04:18:40;;;;;;;13.00;11.50;;;;;;;20.77;86.46;98086.41;137021;1274;22582;-83
2023/07/01 04:21:41;;;;;;;12.80;11.50;;;;;;;20.76;87.16;98083.64;137431;1274;22144;-84
2023/07/01 04:24:42;;;;;;;12.20;11.10;;;;;;;20.81;87.24;98085.20;137088;1274;22402;-84
2023/07/01 04:27:44;;;;;;;13.70;10.60;;;;;;;20.84;87.33;98083.31;137467;1274;22257;-84
2023/07/01 04:30:45;;;;;;;13.00;11.80;;;;;;;20.73;86.69;98085.33;137302;1274;22428;-84
2023/07/01 04:33:46;;;;;;;13.70;12.20;;;;;;;20.56;87.57;98090.27;137026;1274;22259;-80
2023/07/01 04:36:47;;;;;;;13.70;12.30;;;;;;;20.54;88.16;98087.01;137457;1274;22546;-84
2023/07/01 04:39:48;;;;;;;13.90;12.50;;;;;;;20.47;88.51;98088.55;137467;1274;22145;-82
2023/07/01 04:42:52;;;;;;;21.90;19.60;;;;;;;20.51;88.98;98089.80;137457;1274;22220;-83
2023/07/01 04:45:53;;;;;;;17.40;15.70;;;;;;;20.31;87.95;98087.00;137442;1274;22325;-84
2023/07/01 04:48:54;;;;;;;14.60;13.30;;;;;;;20.13;89.01;98087.54;137232;1271;23001;-86
2023/07/01 04:51:55;;;;;;;15.00;13.40;;;;;;;20.24;91.10;98086.22;136997;1274;22245;-86
2023/07/01 04:54:56;;;;;;;14.30;13.10;;;;;;;20.52;90.40;98085.14;136658;1274;22767;-83
2023/07/01 04:57:57;;;;;;;30.10;25.00;;;;;;;20.69;89.59;98084.45;136248;1271;23598;-85
2023/07/01 05:01:08;;;;;;;15.60;14.10;;;;;;;20.64;89.62;98085.02;136566;1274;22659;-84
2023/07/01 05:04:09;;;;;;;15.90;14.60;;;;;;;20.56;89.38;98081.98;137134;1274;22117;-84
2023/07/01 05:07:11;;;;;;;15.30;13.90;;;;;;;20.49;90.26;98084.04;137099;1274;22728;-85
2023/07/01 05:10:13;;;;;;;15.60;14.00;;;;;;;20.51;90.16;98086.61;136773;1274;22536;-82
2023/07/01 05:13:14;;;;;;;16.00;14.30;;;;;;;20.48;89.92;98085.84;137292;1274;22982;-86
2023/07/01 05:16:15;;;;;;;16.20;12.80;;;;;;;20.52;90.48;98090.46;137399;1274;22500;-85
2023/07/01 05:19:16;;;;;;;13.70;12.40;;;;;;;20.48;90.13;98085.84;137386;1274;23067;-84
2023/07/01 05:22:18;;;;;;;13.70;12.50;;;;;;;20.47;90.31;98083.08;137465;1274;22318;-84
2023/07/01 05:25:19;;;;;;;14.00;12.70;;;;;;;20.58;90.72;98090.36;137464;1274;22251;-84
2023/07/01 05:28:20;;;;;;;14.00;12.70;;;;;;;20.68;91.14;98092.44;137380;1270;22987;-84
2023/07/01 05:31:21;;;;;;;13.10;11.70;;;;;;;20.73;89.60;98091.54;137458;1274;22194;-83
2023/07/01 05:34:22;;;;;;;13.60;12.20;;;;;;;20.71;90.77;98093.04;137490;1274;22723;-85
2023/07/01 05:37:23;;;;;;;12.80;11.50;;;;;;;20.92;90.01;98094.67;137473;1274;22316;-85
2023/07/01 05:40:24;;;;;;;12.70;11.40;;;;;;;20.96;89.24;98093.95;137139;1274;22557;-84
2023/07/01 05:43:25;;;;;;;12.60;11.20;;;;;;;21.08;88.28;98091.54;137358;1274;22645;-82
2023/07/01 05:46:27;;;;;;;12.40;11.10;;;;;;;21.14;88.61;98094.65;137018;1274;22627;-83
2023/07/01 05:49:28;;;;;;;13.00;9.70;;;;;;;21.37;88.09;98094.54;137123;1274;22560;-83
2023/07/01 05:52:29;;;;;;;10.90;9.80;;;;;;;21.41;87.38;98091.52;137257;1274;22541;-83
2023/07/01 05:55:30;;;;;;;10.50;9.50;;;;;;;21.46;87.41;98098.77;136664;1274;22241;-83
2023/07/01 05:58:34;;;;;;;10.40;9.50;;;;;;;21.77;86.74;98099.88;137019;1271;22554;-83
2023/07/01 06:01:35;;;;;;;;;;;;;;;21.68;86.27;98102.59;137454;1274;22567;-86
2023/07/01 06:04:36;;;;;;;10.00;9.00;;;;;;;21.47;85.59;98102.77;136937;1274;22239;-83
2023/07/01 06:07:37;;;;;;;10.20;9.30;;;;;;;21.26;86.52;98101.55;136964;1274;22213;-84
2023/07/01 06:10:38;;;;;;;10.20;9.20;;;;;;;21.25;87.12;98105.14;137269;1263;22585;-83
2023/07/01 06:13:40;;;;;;;9.60;8.70;;;;;;;21.52;87.60;98102.73;137056;1274;22245;-83
2023/07/01 06:16:41;;;;;;;8.70;7.80;;;;;;;21.86;86.59;98103.88;136948;1274;22202;-84
2023/07/01 06:19:42;;;;;;;9.70;8.80;;;;;;;21.95;85.49;98104.03;136945;1274;22485;-83
2023/07/01 06:22:43;;;;;;;8.90;8.00;;;;;;;22.15;84.88;98098.70;137132;1274;22251;-83
2023/07/01 06:25:44;;;;;;;8.40;7.60;;;;;;;22.27;84.42;98102.01;136877;1274;22226;-82
2023/07/01 06:28:46;;;;;;;8.20;7.50;;;;;;;22.67;84.07;98096.77;136958;1274;22569;-82
2023/07/01 06:31:47;;;;;;;7.70;7.10;;;;;;;23.10;82.75;98088.44;137060;1274;22702;-81
2023/07/01 06:34:50;;;;;;;7.80;7.00;;;;;;;23.50;80.21;98093.70;137137;1274;22984;-82
2023/07/01 06:37:51;;;;;;;8.00;7.30;;;;;;;23.64;78.51;98100.60;137547;1274;22620;-79
2023/07/01 06:40:52;;;;;;;7.40;6.60;;;;;;;23.81;78.22;98099.35;137496;1274;22476;-81
2023/07/01 06:43:53;;;;;;;7.90;7.20;;;;;;;24.09;77.37;98102.44;137219;1274;22213;-83
2023/07/01 06:46:54;;;;;;;7.90;7.20;;;;;;;24.19;76.53;98105.67;137591;1274;22229;-80
2023/07/01 06:49:55;;;;;;;8.70;7.90;;;;;;;24.09;75.53;98112.41;137488;1275;22235;-81
2023/07/01 06:52:57;;;;;;;7.90;7.20;;;;;;;23.91;76.03;98108.22;137501;1274;22213;-82
2023/07/01 06:55:58;;;;;;;7.40;6.70;;;;;;;23.79;75.38;98110.30;137477;1274;22331;-82
2023/07/01 06:58:59;;;;;;;9.90;7.50;;;;;;;23.52;75.94;98113.85;137460;1274;22092;-82
2023/07/01 07:02:00;;;;;;;8.70;7.60;;;;;;;23.36;77.56;98111.60;137369;1274;22168;-82
2023/07/01 07:05:02;;;;;;;8.60;7.80;;;;;;;23.41;77.17;98113.29;137411;1274;22376;-82
2023/07/01 07:08:03;;;;;;;11.90;8.40;;;;;;;23.43;76.79;98112.87;137415;1274;22302;-81
2023/07/01 07:11:04;;;;;;;10.40;7.00;;;;;;;23.43;77.26;98108.41;137422;1274;22241;-83
2023/07/01 07:14:05;;;;;;;10.20;9.10;;;;;;;23.66;76.77;98109.41;136918;1274;22256;-83
2023/07/01 07:17:06;;;;;;;10.50;8.40;;;;;;;23.51;75.24;98110.70;136836;1274;22598;-81
2023/07/01 07:20:07;;;;;;;11.10;9.20;;;;;;;23.37;75.60;98114.56;137483;1274;22251;-83
2023/07/01 07:23:08;;;;;;;11.00;9.20;;;;;;;23.28;75.08;98114.66;136919;1274;22312;-84
2023/07/01 07:26:09;;;;;;;10.20;8.10;;;;;;;23.10;75.72;98115.24;137005;1274;24234;-83
2023/07/01 07:29:10;;;;;;;9.30;8.40;;;;;;;22.94;75.82;98114.65;137443;1274;22492;-83
2023/07/01 07:32:12;;;;;;;10.80;9.70;;;;;;;22.76;76.90;98114.41;136856;1274;22238;-84
2023/07/01 07:35:13;;;;;;;10.60;9.50;;;;;;;22.66;77.17;98111.19;136903;1274;22306;-84
2023/07/01 07:38:14;;;;;;;10.30;9.20;;;;;;;22.44;78.09;98117.72;137388;1274;22634;-82
2023/07/01 07:41:15;;;;;;;12.70;9.70;;;;;;;22.21;78.91;98112.04;136988;1274;22263;-83
2023/07/01 07:44:16;;;;;;;13.50;11.10;;;;;;;21.92;80.25;98109.45;136859;1274;22203;-83
2023/07/01 07:47:18;;;;;;;11.10;9.90;;;;;;;21.73;80.93;98111.92;137250;1274;26107;-83
2023/07/01 07:50:21;;;;;;;15.60;10.70;;;;;;;21.57;82.53;98114.71;137152;1274;22200;-84
2023/07/01 07:53:22;;;;;;;11.90;10.70;;;;;;;21.61;83.23;98113.86;136982;1274;22429;-84
2023/07/01 07:56:23;;;;;;;13.10;11.30;;;;;;;21.53;83.90;98108.52;137318;1274;22549;-84
2023/07/01 07:59:24;;;;;;;12.30;10.90;;;;;;;21.65;83.66;98107.14;137381;1271;22430;-83
2023/07/01 08:02:25;;;;;;;14.00;12.40;;;;;;;21.61;83.46;98109.25;136877;1274;24237;-83
2023/07/01 08:05:27;;;;;;;14.00;12.50;;;;;;;21.74;83.23;98102.68;136842;1274;23050;-84
2023/07/01 08:08:29;;;;;;;14.90;12.90;;;;;;;21.91;82.91;98106.87;137397;1274;22579;-83
2023/07/01 08:11:30;;;;;;;13.80;12.40;;;;;;;22.07;82.79;98107.40;137430;1274;22266;-83
2023/07/01 08:14:31;;;;;;;14.90;12.20;;;;;;;22.26;81.84;98105.45;136838;1274;22236;-83
2023/07/01 08:17:32;;;;;;;15.20;12.00;;;;;;;22.40;81.61;98104.08;137431;1274;22313;-83
2023/07/01 08:20:33;;;;;;;15.20;12.80;;;;;;;22.49;80.73;98102.04;137225;1274;22279;-80
2023/07/01 08:23:34;;;;;;;19.60;12.20;;;;;;;22.47;79.96;98102.50;137094;1274;22295;-82
2023/07/01 08:26:36;;;;;;;13.20;11.90;;;;;;;22.26;79.38;98103.15;136746;1274;25931;-83
2023/07/01 08:29:37;;;;;;;23.20;11.80;;;;;;;22.40;80.93;98101.40;137092;1274;22570;-84
2023/07/01 08:32:38;;;;;;;13.10;10.70;;;;;;;22.67;80.86;98102.06;136828;1274;22230;-85
2023/07/01 08:35:39;;;;;;;11.90;10.70;;;;;;;22.68;80.05;98098.30;137366;1270;22098;-84
2023/07/01 08:38:40;;;;;;;12.10;10.80;;;;;;;22.66;79.81;98096.80;137389;1274;22366;-84
2023/07/01 08:41:41;;;;;;;16.00;12.10;;;;;;;22.85;78.63;98100.67;137395;1270;22165;-85
2023/07/01 08:44:42;;;;;;;15.10;12.50;;;;;;;23.14;78.05;98102.98;137461;1274;22137;-85
2023/07/01 08:47:43;;;;;;;16.40;12.00;;;;;;;23.56;75.35;98102.63;137394;1274;22245;-85
2023/07/01 08:50:45;;;;;;;14.40;12.00;;;;;;;23.44;74.35;98101.60;137422;1274;22433;-85
2023/07/01 08:53:46;;;;;;;18.10;12.70;;;;;;;23.53;74.69;98096.90;137005;1274;22925;-84
2023/07/01 08:56:47;;;;;;;15.00;13.40;;;;;;;23.61;73.37;98096.52;137405;1274;22602;-84
2023/07/01 08:59:48;;;;;;;14.20;11.90;;;;;;;23.51;72.54;98095.39;137161;1274;22203;-85
2023/07/01 09:02:49;;;;;;;13.60;12.20;;;;;;;23.63;73.66;98091.06;136962;1267;22719;-83
2023/07/01 09:05:51;;;;;;;13.60;11.70;;;;;;;24.16;73.05;98093.16;137341;1274;23183;-84
2023/07/01 09:08:54;;;;;;;13.90;12.40;;;;;;;24.49;70.37;98095.49;136980;1274;22850;-85
2023/07/01 09:11:55;;;;;;;15.60;13.20;;;;;;;24.33;69.29;98093.01;136953;1260;22203;-84
2023/07/01 09:14:56;;;;;;;13.80;12.20;;;;;;;24.17;69.50;98089.20;137136;1274;22678;-84
2023/07/01 09:17:57;;;;;;;11.90;10.80;;;;;;;24.56;69.30;98089.07;136935;1270;22250;-86
2023/07/01 09:20:58;;;;;;;13.10;11.90;;;;;;;25.10;68.05;98087.00;136802;1274;22284;-84
2023/07/01 09:24:00;;;;;;;12.60;11.20;;;;;;;25.71;66.52;98082.45;137047;1274;22560;-85
2023/07/01 09:27:01;;;;;;;12.50;11.20;;;;;;;26.08;64.89;98078.58;137292;1274;22168;-84
2023/07/01 09:30:02;;;;;;;12.00;10.70;;;;;;;26.48;63.83;98072.49;136561;1274;22226;-84
2023/07/01 09:33:03;;;;;;;18.40;11.60;;;;;;;26.68;62.45;98070.67;136822;1274;22606;-83
2023/07/01 09:36:04;;;;;;;12.80;11.60;;;;;;;26.90;60.20;98067.40;137410;1274;22256;-83
2023/07/01 09:39:05;;;;;;;11.10;10.00;;;;;;;26.96;60.41;98068.30;136884;1274;22407;-84
2023/07/01 09:42:06;;;;;;;14.70;11.40;;;;;;;27.03;59.80;98067.12;136775;1274;22530;-84
2023/07/01 09:45:07;;;;;;;12.80;9.90;;;;;;;27.17;58.40;98064.05;137351;1274;22545;-87
2023/07/01 09:48:08;;;;;;;12.60;11.10;;;;;;;27.11;57.69;98059.95;136836;1274;22259;-84
2023/07/01 09:51:10;;;;;;;13.50;10.90;;;;;;;27.16;56.92;98058.53;136624;1274;22638;-84
2023/07/01 09:54:11;;;;;;;12.50;10.30;;;;;;;27.36;56.94;98059.88;137271;1267;22230;-84
2023/07/01 09:57:12;;;;;;;11.50;10.50;;;;;;;27.58;56.30;98055.70;137238;1274;22286;-84
2023/07/01 10:00:15;;;;;;;12.60;11.30;;;;;;;27.66;56.25;98054.59;136728;1274;22685;-84
2023/07/01 10:03:17;;;;;;;11.60;10.60;;;;;;;27.54;56.17;98056.54;137057;1274;22541;-83
2023/07/01 10:06:19;;;;;;;13.40;10.70;;;;;;;27.43;55.87;98051.91;137301;1274;22390;-83
2023/07/01 10:09:23;;;;;;;10.20;9.20;;;;;;;27.37;55.59;98055.35;137173;1274;22231;-84
2023/07/01 10:12:24;;;;;;;11.80;10.10;;;;;;;27.16;56.08;98051.20;137014;1274;22654;-84
2023/07/01 10:15:25;;;;;;;16.40;10.90;;;;;;;27.30;56.49;98047.59;137354;1274;22282;-84
2023/07/01 10:18:26;;;;;;;18.80;11.00;;;;;;;27.48;55.66;98044.59;136879;1274;22196;-84
2023/07/01 10:21:27;;;;;;;15.30;10.10;;;;;;;27.51;55.49;98042.00;136889;1274;22303;-83
2023/07/01 10:24:29;;;;;;;10.50;9.40;;;;;;;27.38;55.56;98039.02;137400;1274;22218;-83
2023/07/01 10:27:30;;;;;;;12.00;9.90;;;;;;;27.12;55.60;98037.23;136992;1274;22372;-82
2023/07/01 10:30:31;;;;;;;10.90;9.60;;;;;;;26.86;56.61;98035.70;137387;1274;22623;-82
2023/07/01 10:33:33;;;;;;;11.30;10.10;;;;;;;26.94;56.60;98032.55;137417;1274;22087;-81
2023/07/01 10:36:36;;;;;;;11.60;9.30;;;;;;;27.25;55.88;98026.34;136845;1274;22242;-82
2023/07/01 10:39:37;;;;;;;;;;;;;;;27.15;55.22;98022.60;136739;1274;22546;-82
2023/07/01 10:42:39;;;;;;;11.90;10.80;;;;;;;27.00;55.79;98021.30;136930;1274;23450;-81
2023/07/01 10:45:40;;;;;;;10.10;9.10;;;;;;;27.19;55.60;98018.88;136819;1274;22598;-80
2023/07/01 10:48:41;;;;;;;11.60;10.50;;;;;;;27.31;55.32;98020.23;137045;1274;22960;-82
2023/07/01 10:51:42;;;;;;;11.70;10.40;;;;;;;27.26;56.11;98021.98;136936;1274;22551;-81
2023/07/01 10:54:43;;;;;;;12.40;11.20;;;;;;;27.17;55.97;98020.45;137376;1274;22292;-82
2023/07/01 10:57:44;;;;;;;12.10;10.50;;;;;;;27.11;55.94;98021.23;136910;1274;23270;-82
2023/07/01 11:00:45;;;;;;;12.40;11.30;;;;;;;26.96;56.38;98017.95;136942;1274;24295;-81
2023/07/01 11:03:47;;;;;;;13.60;11.10;;;;;;;26.80;56.89;98014.38;137443;1274;22775;-83
2023/07/01 11:06:49;;;;;;;12.90;11.20;;;;;;;26.85;57.11;98010.84;136936;1274;22169;-83
2023/07/01 11:09:50;;;;;;;20.30;11.60;;;;;;;26.77;57.06;98010.09;136867;1274;22660;-81
2023/07/01 11:12:51;;;;;;;13.70;12.30;;;;;;;26.75;57.68;98010.45;137436;1274;22567;-82
2023/07/01 11:15:52;;;;;;;13.00;11.60;;;;;;;26.74;57.72;98010.86;137054;1274;22552;-82
2023/07/01 11:18:53;;;;;;;11.60;10.40;;;;;;;26.76;57.58;98009.12;136879;1274;22605;-83
2023/07/01 11:21:55;;;;;;;13.20;11.80;;;;;;;26.78;57.18;98007.35;137209;1274;22560;-81
2023/07/01 11:24:56;;;;;;;13.20;12.00;;;;;;;26.89;56.76;98005.02;136973;1274;22254;-79
2023/07/01 11:27:57;;;;;;;16.00;12.20;;;;;;;27.11;55.95;98000.01;136644;1270;22529;-81
2023/07/01 11:30:58;;;;;;;14.60;13.20;;;;;;;27.24;54.06;97996.77;136655;1274;24192;-78
2023/07/01 11:33:59;;;;;;;17.90;13.60;;;;;;;27.06;55.26;97994.47;137129;1274;22211;-81
2023/07/01 11:37:01;;;;;;;14.40;13.20;;;;;;;27.03;55.22;97993.39;136897;1274;22165;-81
2023/07/01 11:40:03;;;;;;;15.70;14.10;;;;;;;27.01;55.38;97992.14;137153;1274;22549;-80
2023/07/01 11:43:04;;;;;;;27.90;14.00;;;;;;;26.99;55.76;97991.70;137336;1274;22384;-82
2023/07/01 11:46:05;;;;;;;14.50;13.10;;;;;;;27.05;56.23;97988.02;137283;1274;22799;-82
2023/07/01 11:49:06;;;;;;;16.30;14.30;;;;;;;27.36;56.40;97985.58;137272;1274;22464;-80
2023/07/01 11:52:07;;;;;;;16.00;14.40;;;;;;;27.74;56.00;97985.58;137167;1274;22793;-80
2023/07/01 11:55:08;;;;;;;14.00;12.70;;;;;;;28.06;54.52;97986.86;136798;1274;22240;-81
2023/07/01 11:58:10;;;;;;;14.70;12.80;;;;;;;28.18;53.58;97980.62;136852;1274;22522;-81
2023/07/01 12:01:11;;;;;;;14.20;12.20;;;;;;;28.37;52.89;97976.57;137405;1274;22550;-82
2023/07/01 12:04:12;;;;;;;12.60;11.40;;;;;;;28.57;51.20;97975.80;135361;1274;1903117;-80
2023/07/01 12:07:13;;;;;;;14.10;12.60;;;;;;;28.72;50.70;97970.59;136578;1274;22259;-80
2023/07/01 12:10:15;;;;;;;13.50;12.20;;;;;;;29.11;50.19;97963.13;137140;1274;22582;-80
2023/07/01 12:13:16;;;;;;;15.30;13.30;;;;;;;29.31;48.89;97960.25;137043;1274;23250;-80
2023/07/01 12:16:17;;;;;;;14.40;12.90;;;;;;;29.38;48.82;97956.55;136819;1274;22665;-81
2023/07/01 12:19:18;;;;;;;14.70;12.30;;;;;;;29.59;48.36;97952.79;136990;1274;22544;-79
2023/07/01 12:22:19;;;;;;;14.40;12.90;;;;;;;29.40;48.20;97946.66;136936;1274;22624;-80
2023/07/01 12:25:20;;;;;;;14.10;12.50;;;;;;;29.68;47.66;97943.05;136359;1274;22485;-80
2023/07/01 12:28:21;;;;;;;13.10;11.90;;;;;;;29.99;47.05;97940.24;136565;1264;22543;-80
2023/07/01 12:31:23;;;;;;;13.00;11.80;;;;;;;30.06;46.82;97940.38;136597;1274;22573;-81
2023/07/01 12:34:24;;;;;;;20.10;13.30;;;;;;;30.13;47.09;97942.30;136949;1274;22240;-81
2023/07/01 12:37:25;;;;;;;14.00;12.70;;;;;;;29.97;47.40;97942.84;137176;1274;22562;-83
2023/07/01 12:40:26;;;;;;;14.10;12.70;;;;;;;30.08;47.28;97942.39;136923;1274;22234;-82
2023/07/01 12:43:28;;;;;;;13.90;12.50;;;;;;;30.24;46.81;97934.05;136952;1274;22124;-81
2023/07/01 12:46:29;;;;;;;15.70;14.10;;;;;;;30.26;45.96;97933.16;137050;1273;22532;-81
2023/07/01 12:49:32;;;;;;;14.00;12.80;;;;;;;29.85;46.06;97935.41;137124;1274;22290;-81
2023/07/01 12:52:33;;;;;;;14.10;12.80;;;;;;;29.63;46.36;97933.80;137085;1274;22280;-82
2023/07/01 12:55:35;;;;;;;13.40;12.20;;;;;;;29.67;46.84;97930.25;137079;1274;22630;-81
2023/07/01 12:58:36;;;;;;;12.80;11.60;;;;;;;29.84;47.17;97928.17;137387;1274;22385;-83
2023/07/01 13:01:37;;;;;;;17.00;12.70;;;;;;;30.04;46.80;97925.83;136961;1270;22567;-81
2023/07/01 13:04:39;;;;;;;15.20;12.60;;;;;;;30.32;46.64;97922.61;136794;1274;22540;-82
2023/07/01 13:07:40;;;;;;;14.60;13.20;;;;;;;30.32;45.05;97922.98;137333;1274;22871;-82
2023/07/01 13:10:41;;;;;;;15.70;13.80;;;;;;;29.93;44.90;97918.10;136788;1274;22230;-82
2023/07/01 13:13:42;;;;;;;14.00;12.80;;;;;;;29.55;45.37;97914.91;136790;1274;22572;-81
2023/07/01 13:16:43;;;;;;;14.80;13.40;;;;;;;29.06;45.59;97914.06;137099;1274;22648;-82
2023/07/01 13:19:45;;;;;;;14.80;13.50;;;;;;;28.82;47.11;97909.28;136964;1273;22227;-83
2023/07/01 13:22:46;;;;;;;14.50;13.00;;;;;;;28.54;45.67;97915.36;136842;1274;22143;-82
2023/07/01 13:25:47;;;;;;;14.20;12.80;;;;;;;28.37;47.47;97916.27;137132;1274;25422;-83
2023/07/01 13:28:48;;;;;;;14.50;13.20;;;;;;;28.70;48.07;97906.64;136947;1274;22554;-82
2023/07/01 13:31:49;;;;;;;14.50;13.10;;;;;;;28.82;48.47;97909.99;136543;1274;22593;-82
2023/07/01 13:34:50;;;;;;;15.50;13.00;;;;;;;28.72;49.41;97905.73;136868;1274;22492;-82
2023/07/01 13:37:51;;;;;;;15.30;14.00;;;;;;;28.62;48.77;97903.31;136760;1274;22162;-83
2023/07/01 13:40:53;;;;;;;15.40;13.90;;;;;;;28.13;49.54;97903.72;137064;1274;23014;-83
2023/07/01 13:43:54;;;;;;;15.60;14.10;;;;;;;27.72;50.51;97903.70;137095;1274;22565;-84
2023/07/01 13:46:55;;;;;;;15.10;13.70;;;;;;;27.40;51.49;97900.46;136644;1274;22568;-82
2023/07/01 13:49:56;;;;;;;15.30;13.90;;;;;;;27.44;52.20;97896.55;136552;1274;22562;-82